createdAt,value
2019-04-20T00:00:39.709Z,913.16
2019-04-20T00:01:33.671Z,913.09
2019-04-20T00:02:31.697Z,913.12
2019-04-20T00:03:38.326Z,913.09
2019-04-20T00:04:34.212Z,913.10
2019-04-20T00:05:31.499Z,913.10
2019-04-20T00:06:38.167Z,913.08
2019-04-20T00:07:34.294Z,913.09
2019-04-20T00:08:34.477Z,913.10
2019-04-20T00:09:34.913Z,913.10
2019-04-20T00:10:43.396Z,913.09
2019-04-20T00:11:45.971Z,913.10
2019-04-20T00:12:42.365Z,913.11
2019-04-20T00:13:43.815Z,913.12
2019-04-20T00:14:34.504Z,913.15
2019-04-20T00:15:32.319Z,913.14
2019-04-20T00:16:31.619Z,913.09
2019-04-20T00:17:31.172Z,913.07
2019-04-20T00:18:38.202Z,913.07
2019-04-20T00:19:37.398Z,913.08
2019-04-20T00:20:33.975Z,913.05
2019-04-20T00:21:31.223Z,913.04
2019-04-20T00:22:39.290Z,913.07
2019-04-20T00:23:35.425Z,913.08
2019-04-20T00:24:34.088Z,913.13
2019-04-20T00:25:41.728Z,913.12
2019-04-20T00:27:01.380Z,913.15
2019-04-20T00:27:52.550Z,913.17
2019-04-20T00:28:47.364Z,913.16
2019-04-20T00:29:49.815Z,913.18
2019-04-20T00:30:50.241Z,913.20
2019-04-20T00:31:45.915Z,913.24
2019-04-20T00:32:49.004Z,913.22
2019-04-20T00:33:42.236Z,913.23
2019-04-20T00:34:35.623Z,913.22
2019-04-20T00:35:31.359Z,913.17
2019-04-20T00:36:30.738Z,913.12
2019-04-20T00:37:31.706Z,913.09
2019-04-20T00:38:35.193Z,913.04
2019-04-20T00:39:30.448Z,913.04
2019-04-20T00:40:30.613Z,913.06
2019-04-20T00:41:36.204Z,913.05
2019-04-20T00:42:40.216Z,913.10
2019-04-20T00:43:32.971Z,913.05
2019-04-20T00:44:35.831Z,913.09
2019-04-20T00:45:33.218Z,913.10
2019-04-20T00:46:39.780Z,913.03
2019-04-20T00:47:44.645Z,913.09
2019-04-20T00:48:40.430Z,913.08
2019-04-20T00:49:45.745Z,913.06
2019-04-20T00:50:46.979Z,913.07
2019-04-20T00:51:45.564Z,913.06
2019-04-20T00:52:47.049Z,913.08
2019-04-20T00:53:37.248Z,913.04
2019-04-20T00:54:30.561Z,913.05
2019-04-20T00:55:29.957Z,913.06
2019-04-20T00:56:30.913Z,913.11
2019-04-20T00:57:36.899Z,913.18
2019-04-20T00:58:35.958Z,913.19
2019-04-20T00:59:51.745Z,913.20
2019-04-20T01:00:51.081Z,913.24
2019-04-20T01:01:47.839Z,913.23
2019-04-20T01:02:40.651Z,913.24
2019-04-20T01:03:44.603Z,913.23
2019-04-20T01:04:50.833Z,913.24
2019-04-20T01:05:56.335Z,913.21
2019-04-20T01:06:42.378Z,913.22
2019-04-20T01:07:39.481Z,913.24
2019-04-20T01:08:29.662Z,913.23
2019-04-20T01:09:30.826Z,913.24
2019-04-20T01:10:37.100Z,913.23
2019-04-20T01:11:36.425Z,913.27
2019-04-20T01:12:31.943Z,913.27
2019-04-20T01:13:30.191Z,913.27
2019-04-20T01:14:37.872Z,913.28
2019-04-20T01:15:37.697Z,913.22
2019-04-20T01:16:38.580Z,913.22
2019-04-20T01:17:29.231Z,913.21
2019-04-20T01:18:29.180Z,913.19
2019-04-20T01:19:29.218Z,913.16
2019-04-20T01:20:29.108Z,913.20
2019-04-20T01:21:31.804Z,913.21
2019-04-20T01:22:33.954Z,913.22
2019-04-20T01:23:35.577Z,913.22
2019-04-20T01:24:34.950Z,913.21
2019-04-20T01:25:35.325Z,913.24
2019-04-20T01:26:29.415Z,913.25
2019-04-20T01:27:42.585Z,913.24
2019-04-20T01:28:46.458Z,913.20
2019-04-20T01:29:36.877Z,913.22
2019-04-20T01:30:35.937Z,913.26
2019-04-20T01:31:36.429Z,913.24
2019-04-20T01:32:49.345Z,913.25
2019-04-20T01:33:40.066Z,913.25
2019-04-20T01:34:42.689Z,913.28
2019-04-20T01:35:44.169Z,913.30
2019-04-20T01:36:47.479Z,913.29
2019-04-20T01:37:38.375Z,913.25
2019-04-20T01:38:46.138Z,913.26
2019-04-20T01:39:35.354Z,913.24
2019-04-20T01:40:29.457Z,913.24
2019-04-20T01:41:28.611Z,913.23
2019-04-20T01:42:29.925Z,913.24
2019-04-20T01:43:29.117Z,913.26
2019-04-20T01:44:35.333Z,913.28
2019-04-20T01:45:34.154Z,913.30
2019-04-20T01:46:29.945Z,913.28
2019-04-20T01:47:34.011Z,913.28
2019-04-20T01:48:33.592Z,913.25
2019-04-20T01:49:32.401Z,913.26
2019-04-20T01:50:33.309Z,913.20
2019-04-20T01:51:33.469Z,913.19
2019-04-20T01:52:35.954Z,913.22
2019-04-20T01:53:44.228Z,913.24
2019-04-20T01:54:51.204Z,913.23
2019-04-20T01:55:55.756Z,913.24
2019-04-20T01:56:40.401Z,913.22
2019-04-20T01:57:37.377Z,913.21
2019-04-20T01:58:50.657Z,913.22
2019-04-20T01:59:39.965Z,913.25
2019-04-20T02:00:31.584Z,913.22
2019-04-20T02:01:31.598Z,913.25
2019-04-20T02:02:28.348Z,913.29
2019-04-20T02:03:34.148Z,913.26
2019-04-20T02:04:33.975Z,913.31
2019-04-20T02:05:32.305Z,913.28
2019-04-20T02:06:28.697Z,913.29
2019-04-20T02:07:35.030Z,913.31
2019-04-20T02:08:29.389Z,913.27
2019-04-20T02:09:30.831Z,913.26
2019-04-20T02:10:37.072Z,913.23
2019-04-20T02:11:32.729Z,913.23
2019-04-20T02:12:32.342Z,913.22
2019-04-20T02:13:38.586Z,913.20
2019-04-20T02:14:35.630Z,913.19
2019-04-20T02:15:37.543Z,913.21
2019-04-20T02:16:35.675Z,913.18
2019-04-20T02:17:36.685Z,913.12
2019-04-20T02:18:41.517Z,913.16
2019-04-20T02:19:43.130Z,913.12
2019-04-20T02:20:44.363Z,913.14
2019-04-20T02:21:43.339Z,913.17
2019-04-20T02:22:45.178Z,913.21
2019-04-20T02:23:37.987Z,913.24
2019-04-20T02:24:27.929Z,913.26
2019-04-20T02:25:27.093Z,913.32
2019-04-20T02:26:28.108Z,913.30
2019-04-20T02:27:35.557Z,913.31
2019-04-20T02:28:58.991Z,913.32
2019-04-20T02:30:11.117Z,913.35
2019-04-20T02:32:19.712Z,913.37
2019-04-20T02:33:07.235Z,913.32
2019-04-20T02:34:00.771Z,913.32
2019-04-20T02:36:04.151Z,913.38
2019-04-20T02:37:08.124Z,913.41
2019-04-20T02:40:05.550Z,913.47
2019-04-20T02:41:03.285Z,913.48
2019-04-20T02:44:09.374Z,913.50
2019-04-20T02:45:18.666Z,913.50
2019-04-20T02:46:00.850Z,913.51
2019-04-20T02:47:14.494Z,913.52
2019-04-20T02:48:08.649Z,913.53
2019-04-20T02:49:07.742Z,913.49
2019-04-20T02:50:15.140Z,913.53
2019-04-20T02:50:59.643Z,913.51
2019-04-20T02:52:02.956Z,913.52
2019-04-20T02:53:05.247Z,913.55
2019-04-20T02:54:16.599Z,913.56
2019-04-20T02:55:06.303Z,913.56
2019-04-20T02:56:09.054Z,913.53
2019-04-20T02:58:05.140Z,913.53
2019-04-20T02:59:02.049Z,913.53
2019-04-20T03:00:08.711Z,913.49
2019-04-20T03:00:55.208Z,913.52
2019-04-20T03:01:49.155Z,913.51
2019-04-20T03:02:38.600Z,913.48
2019-04-20T03:03:35.395Z,913.48
2019-04-20T03:04:35.060Z,913.47
2019-04-20T03:05:35.889Z,913.50
2019-04-20T03:06:38.858Z,913.50
2019-04-20T03:07:41.104Z,913.48
2019-04-20T03:08:46.899Z,913.51
2019-04-20T03:09:44.377Z,913.54
2019-04-20T03:10:56.304Z,913.56
2019-04-20T03:11:53.886Z,913.56
2019-04-20T03:12:47.782Z,913.58
2019-04-20T03:13:47.472Z,913.62
2019-04-20T03:14:39.653Z,913.62
2019-04-20T03:15:42.331Z,913.63
2019-04-20T03:16:45.441Z,913.64
2019-04-20T03:17:46.472Z,913.68
2019-04-20T03:18:41.335Z,913.67
2019-04-20T03:19:41.074Z,913.64
2019-04-20T03:20:46.210Z,913.64
2019-04-20T03:23:09.155Z,913.62
2019-04-20T03:23:54.285Z,913.63
2019-04-20T03:24:49.828Z,913.59
2019-04-20T03:25:53.448Z,913.56
2019-04-20T03:26:41.974Z,913.53
2019-04-20T03:27:40.987Z,913.52
2019-04-20T03:28:45.414Z,913.53
2019-04-20T03:29:47.065Z,913.54
2019-04-20T03:31:22.913Z,913.50
2019-04-20T03:33:02.382Z,913.49
2019-04-20T03:34:05.767Z,913.51
2019-04-20T03:35:50.896Z,913.49
2019-04-20T03:36:57.177Z,913.45
2019-04-20T03:37:48.732Z,913.43
2019-04-20T03:38:41.089Z,913.40
2019-04-20T03:39:40.774Z,913.43
2019-04-20T03:41:33.295Z,913.42
2019-04-20T03:42:24.612Z,913.45
2019-04-20T03:43:24.578Z,913.42
2019-04-20T03:44:27.829Z,913.45
2019-04-20T03:45:26.500Z,913.48
2019-04-20T03:46:31.169Z,913.49
2019-04-20T03:47:35.917Z,913.52
2019-04-20T03:48:41.325Z,913.54
2019-04-20T03:50:47.473Z,913.53
2019-04-20T03:51:47.263Z,913.51
2019-04-20T03:52:43.662Z,913.55
2019-04-20T03:53:44.456Z,913.51
2019-04-20T03:54:36.942Z,913.51
2019-04-20T03:55:39.644Z,913.52
2019-04-20T03:56:46.317Z,913.53
2019-04-20T03:57:49.797Z,913.56
2019-04-20T03:58:37.667Z,913.55
2019-04-20T03:59:44.629Z,913.52
2019-04-20T04:00:43.407Z,913.49
2019-04-20T04:02:52.833Z,913.46
2019-04-20T04:03:53.272Z,913.43
2019-04-20T04:04:47.739Z,913.44
2019-04-20T04:05:43.802Z,913.42
2019-04-20T04:06:33.463Z,913.34
2019-04-20T04:07:32.283Z,913.36
2019-04-20T04:08:30.398Z,913.32
2019-04-20T04:09:33.095Z,913.29
2019-04-20T04:10:33.666Z,913.27
2019-04-20T04:11:37.869Z,913.25
2019-04-20T04:12:30.754Z,913.26
2019-04-20T04:13:24.830Z,913.26
2019-04-20T04:14:24.033Z,913.25
2019-04-20T04:15:23.578Z,913.26
2019-04-20T04:16:33.850Z,913.24
2019-04-20T04:17:28.797Z,913.21
2019-04-20T04:18:29.887Z,913.22
2019-04-20T04:19:31.208Z,913.22
2019-04-20T04:20:34.380Z,913.19
2019-04-20T04:21:43.956Z,913.18
2019-04-20T04:22:40.035Z,913.15
2019-04-20T04:23:40.948Z,913.17
2019-04-20T04:24:31.503Z,913.12
2019-04-20T04:25:34.543Z,913.09
2019-04-20T04:26:39.017Z,913.12
2019-04-20T04:27:42.897Z,913.09
2019-04-20T04:28:41.158Z,913.09
2019-04-20T04:29:45.918Z,913.02
2019-04-20T04:30:36.799Z,913.01
2019-04-20T04:31:50.812Z,913.00
2019-04-20T04:33:10.610Z,912.99
2019-04-20T04:34:40.575Z,912.97
2019-04-20T04:35:33.521Z,912.94
2019-04-20T04:36:40.593Z,912.89
2019-04-20T04:37:40.809Z,912.90
2019-04-20T04:38:58.045Z,912.86
2019-04-20T04:39:47.430Z,912.89
2019-04-20T04:40:52.500Z,912.84
2019-04-20T04:41:39.859Z,912.85
2019-04-20T04:43:40.207Z,912.79
2019-04-20T04:44:35.458Z,912.80
2019-04-20T04:45:26.560Z,912.80
2019-04-20T04:46:22.756Z,912.82
2019-04-20T04:47:23.921Z,912.84
2019-04-20T04:48:29.969Z,912.88
2019-04-20T04:49:30.690Z,912.91
2019-04-20T04:50:26.216Z,912.89
2019-04-20T04:51:27.843Z,912.91
2019-04-20T04:52:29.396Z,912.92
2019-04-20T04:53:33.790Z,912.92
2019-04-20T04:54:28.841Z,912.91
2019-04-20T04:55:34.418Z,912.90
2019-04-20T04:56:23.946Z,912.90
2019-04-20T04:57:22.266Z,912.88
2019-04-20T04:58:23.559Z,912.91
2019-04-20T04:59:23.431Z,912.90
2019-04-20T05:00:26.226Z,912.92
2019-04-20T05:01:28.459Z,912.91
2019-04-20T05:02:29.892Z,912.91
2019-04-20T05:03:38.657Z,912.90
2019-04-20T05:04:49.592Z,912.92
2019-04-20T05:05:45.286Z,912.87
2019-04-20T05:06:35.578Z,912.83
2019-04-20T05:07:34.265Z,912.87
2019-04-20T05:08:30.429Z,912.83
2019-04-20T05:09:22.652Z,912.84
2019-04-20T05:10:22.373Z,912.83
2019-04-20T05:11:21.832Z,912.81
2019-04-20T05:12:25.354Z,912.83
2019-04-20T05:13:21.939Z,912.79
2019-04-20T05:14:26.249Z,912.80
2019-04-20T05:15:38.892Z,912.78
2019-04-20T05:16:40.908Z,912.81
2019-04-20T05:17:45.275Z,912.81
2019-04-20T05:18:44.760Z,912.83
2019-04-20T05:19:44.314Z,912.84
2019-04-20T05:20:43.912Z,912.81
2019-04-20T05:21:49.601Z,912.83
2019-04-20T05:22:42.851Z,912.84
2019-04-20T05:23:36.458Z,912.86
2019-04-20T05:24:34.860Z,912.85
2019-04-20T05:25:36.228Z,912.86
2019-04-20T05:26:45.919Z,912.82
2019-04-20T05:27:39.151Z,912.85
2019-04-20T05:28:33.675Z,912.84
2019-04-20T05:29:25.452Z,912.77
2019-04-20T05:30:22.389Z,912.74
2019-04-20T05:31:24.444Z,912.78
2019-04-20T05:32:32.845Z,912.76
2019-04-20T05:33:33.062Z,912.77
2019-04-20T05:34:45.206Z,912.75
2019-04-20T05:35:38.734Z,912.78
2019-04-20T05:36:41.489Z,912.72
2019-04-20T05:37:49.879Z,912.72
2019-04-20T05:38:52.071Z,912.71
2019-04-20T05:39:44.481Z,912.66
2019-04-20T05:40:38.961Z,912.63
2019-04-20T05:41:40.338Z,912.64
2019-04-20T05:42:44.446Z,912.63
2019-04-20T05:43:38.639Z,912.62
2019-04-20T05:44:43.538Z,912.65
2019-04-20T05:45:35.162Z,912.62
2019-04-20T05:46:41.182Z,912.61
2019-04-20T05:47:41.525Z,912.63
2019-04-20T05:48:41.315Z,912.63
2019-04-20T05:49:34.586Z,912.60
2019-04-20T05:50:37.731Z,912.62
2019-04-20T05:51:40.693Z,912.57
2019-04-20T05:53:38.603Z,912.54
2019-04-20T05:54:39.062Z,912.52
2019-04-20T05:55:39.073Z,912.53
2019-04-20T05:56:45.663Z,912.48
2019-04-20T05:57:42.433Z,912.53
2019-04-20T05:58:40.186Z,912.49
2019-04-20T05:59:46.956Z,912.51
2019-04-20T06:00:47.667Z,912.47
2019-04-20T06:01:49.949Z,912.47
2019-04-20T06:02:37.297Z,912.46
2019-04-20T06:03:38.294Z,912.43
2019-04-20T06:04:58.757Z,912.43
2019-04-20T06:05:46.240Z,912.44
2019-04-20T06:06:37.715Z,912.44
2019-04-20T06:07:43.466Z,912.42
2019-04-20T06:08:45.300Z,912.42
2019-04-20T06:09:39.767Z,912.43
2019-04-20T06:10:42.150Z,912.39
2019-04-20T06:11:44.885Z,912.38
2019-04-20T06:12:42.820Z,912.33
2019-04-20T06:13:32.633Z,912.34
2019-04-20T06:14:37.005Z,912.29
2019-04-20T06:15:39.266Z,912.29
2019-04-20T06:16:46.870Z,912.27
2019-04-20T06:17:40.051Z,912.24
2019-04-20T06:18:34.785Z,912.24
2019-04-20T06:19:44.052Z,912.20
2019-04-20T06:21:41.721Z,912.21
2019-04-20T06:22:41.664Z,912.20
2019-04-20T06:23:46.781Z,912.18
2019-04-20T06:24:44.832Z,912.16
2019-04-20T06:25:45.909Z,912.16
2019-04-20T06:26:49.072Z,912.13
2019-04-20T06:27:43.528Z,912.14
2019-04-20T06:28:35.630Z,912.13
2019-04-20T06:29:42.706Z,912.13
2019-04-20T06:30:32.228Z,912.13
2019-04-20T06:31:39.701Z,912.10
2019-04-20T06:32:40.228Z,912.10
2019-04-20T06:33:53.362Z,912.08
2019-04-20T06:34:39.152Z,912.06
2019-04-20T06:37:36.319Z,911.99
2019-04-20T06:39:46.543Z,911.94
2019-04-20T06:40:58.031Z,911.91
2019-04-20T06:41:45.298Z,911.93
2019-04-20T06:42:39.649Z,911.86
2019-04-20T06:43:40.937Z,911.85
2019-04-20T06:44:50.528Z,911.86
2019-04-20T06:45:45.811Z,911.85
2019-04-20T06:46:48.737Z,911.86
2019-04-20T06:47:42.811Z,911.86
2019-04-20T06:48:44.472Z,911.82
2019-04-20T06:49:38.417Z,911.81
2019-04-20T06:50:33.865Z,911.81
2019-04-20T06:51:40.355Z,911.77
2019-04-20T06:52:52.380Z,911.77
2019-04-20T06:53:45.544Z,911.69
2019-04-20T06:54:38.054Z,911.69
2019-04-20T06:55:42.791Z,911.69
2019-04-20T06:56:42.030Z,911.66
2019-04-20T06:57:42.673Z,911.64
2019-04-20T06:58:46.052Z,911.68
2019-04-20T06:59:57.931Z,911.62
2019-04-20T07:00:39.623Z,911.59
2019-04-20T07:01:48.790Z,911.59
2019-04-20T07:02:41.508Z,911.52
2019-04-20T07:03:59.191Z,911.52
2019-04-20T07:04:47.509Z,911.50
2019-04-20T07:05:39.082Z,911.49
2019-04-20T07:06:50.592Z,911.49
2019-04-20T07:07:45.136Z,911.49
2019-04-20T07:08:49.318Z,911.45
2019-04-20T07:09:46.201Z,911.44
2019-04-20T07:10:37.700Z,911.44
2019-04-20T07:11:35.453Z,911.42
2019-04-20T07:12:38.898Z,911.42
2019-04-20T07:13:28.739Z,911.42
2019-04-20T07:14:35.266Z,911.36
2019-04-20T07:15:33.643Z,911.37
2019-04-20T07:16:36.369Z,911.34
2019-04-20T07:18:42.882Z,911.29
2019-04-20T07:19:36.259Z,911.28
2019-04-20T07:20:49.106Z,911.25
2019-04-20T07:21:52.377Z,911.22
2019-04-20T07:22:37.627Z,911.23
2019-04-20T07:23:42.192Z,911.23
2019-04-20T07:24:47.204Z,911.23
2019-04-20T07:25:44.704Z,911.21
2019-04-20T07:26:44.634Z,911.21
2019-04-20T07:27:36.842Z,911.25
2019-04-20T07:28:47.124Z,911.20
2019-04-20T07:29:43.174Z,911.23
2019-04-20T07:30:42.393Z,911.22
2019-04-20T07:31:37.987Z,911.23
2019-04-20T07:32:44.131Z,911.21
2019-04-20T07:33:39.437Z,911.17
2019-04-20T07:34:38.516Z,911.17
2019-04-20T07:35:35.716Z,911.17
2019-04-20T07:36:40.248Z,911.18
2019-04-20T07:38:04.597Z,911.19
2019-04-20T07:38:40.201Z,911.17
2019-04-20T07:39:40.760Z,911.17
2019-04-20T07:40:35.645Z,911.16
2019-04-20T07:41:50.580Z,911.20
2019-04-20T07:42:43.790Z,911.23
2019-04-20T07:43:41.780Z,911.25
2019-04-20T07:44:44.033Z,911.28
2019-04-20T07:45:35.073Z,911.23
2019-04-20T07:46:47.465Z,911.29
2019-04-20T07:47:40.473Z,911.29
2019-04-20T07:48:37.912Z,911.31
2019-04-20T07:49:39.153Z,911.35
2019-04-20T07:50:29.519Z,911.36
2019-04-20T07:51:25.983Z,911.34
2019-04-20T07:52:29.869Z,911.36
2019-04-20T07:53:30.562Z,911.36
2019-04-20T07:54:47.587Z,911.35
2019-04-20T07:56:39.352Z,911.38
2019-04-20T07:57:34.134Z,911.38
2019-04-20T07:58:29.538Z,911.35
2019-04-20T07:59:27.605Z,911.36
2019-04-20T08:01:45.419Z,911.34
2019-04-20T08:02:46.933Z,911.35
2019-04-20T08:03:39.325Z,911.33
2019-04-20T08:04:32.508Z,911.36
2019-04-20T08:05:31.201Z,911.34
2019-04-20T08:06:23.448Z,911.38
2019-04-20T08:07:17.869Z,911.34
2019-04-20T08:08:32.646Z,911.38
2019-04-20T08:09:25.968Z,911.36
2019-04-20T08:10:35.293Z,911.44
2019-04-20T08:11:38.014Z,911.42
2019-04-20T08:12:41.654Z,911.45
2019-04-20T08:13:40.304Z,911.48
2019-04-20T08:14:39.443Z,911.49
2019-04-20T08:15:43.376Z,911.55
2019-04-20T08:16:47.064Z,911.58
2019-04-20T08:17:44.258Z,911.58
2019-04-20T08:18:40.217Z,911.62
2019-04-20T08:19:35.314Z,911.62
2019-04-20T08:20:33.122Z,911.67
2019-04-20T08:21:38.768Z,911.71
2019-04-20T08:22:33.879Z,911.70
2019-04-20T08:23:33.636Z,911.69
2019-04-20T08:24:32.763Z,911.72
2019-04-20T08:25:27.668Z,911.72
2019-04-20T08:26:22.171Z,911.70
2019-04-20T08:27:17.603Z,911.65
2019-04-20T08:28:22.724Z,911.69
2019-04-20T08:29:26.822Z,911.71
2019-04-20T08:30:36.409Z,911.70
2019-04-20T08:31:29.891Z,911.74
2019-04-20T08:32:34.623Z,911.75
2019-04-20T08:33:36.431Z,911.75
2019-04-20T08:35:42.598Z,911.76
2019-04-20T08:36:43.128Z,911.74
2019-04-20T08:37:37.934Z,911.75
2019-04-20T08:38:58.005Z,911.78
2019-04-20T08:39:49.915Z,911.77
2019-04-20T08:40:37.269Z,911.83
2019-04-20T08:41:31.833Z,911.87
2019-04-20T08:42:40.486Z,911.91
2019-04-20T08:43:47.031Z,911.96
2019-04-20T08:44:56.870Z,911.94
2019-04-20T08:45:35.627Z,911.96
2019-04-20T08:46:45.578Z,911.93
2019-04-20T08:48:34.829Z,911.94
2019-04-20T08:49:35.524Z,911.96
2019-04-20T08:50:35.613Z,911.94
2019-04-20T08:51:45.116Z,911.98
2019-04-20T08:52:55.423Z,911.98
2019-04-20T08:53:37.019Z,911.98
2019-04-20T08:54:32.555Z,912.02
2019-04-20T08:55:28.131Z,912.07
2019-04-20T08:56:30.569Z,912.11
2019-04-20T08:57:15.620Z,912.11
2019-04-20T08:58:14.343Z,912.14
2019-04-20T08:59:14.327Z,912.16
2019-04-20T09:00:18.273Z,912.17
2019-04-20T09:01:20.078Z,912.15
2019-04-20T09:02:16.974Z,912.17
2019-04-20T09:03:22.817Z,912.19
2019-04-20T09:04:20.695Z,912.20
2019-04-20T09:05:34.709Z,912.22
2019-04-20T09:06:26.271Z,912.26
2019-04-20T09:07:20.206Z,912.24
2019-04-20T09:08:21.243Z,912.24
2019-04-20T09:09:49.625Z,912.25
2019-04-20T09:10:34.479Z,912.25
2019-04-20T09:11:34.639Z,912.25
2019-04-20T09:12:31.917Z,912.26
2019-04-20T09:13:24.583Z,912.26
2019-04-20T09:14:14.156Z,912.30
2019-04-20T09:15:14.776Z,912.28
2019-04-20T09:16:15.249Z,912.31
2019-04-20T09:17:23.086Z,912.33
2019-04-20T09:18:21.396Z,912.33
2019-04-20T09:19:20.230Z,912.33
2019-04-20T09:20:25.354Z,912.35
2019-04-20T09:21:24.259Z,912.39
2019-04-20T09:22:24.267Z,912.39
2019-04-20T09:23:26.581Z,912.38
2019-04-20T09:24:36.142Z,912.40
2019-04-20T09:26:32.338Z,912.41
2019-04-20T09:27:26.879Z,912.43
2019-04-20T09:28:23.498Z,912.42
2019-04-20T09:29:27.304Z,912.45
2019-04-20T09:30:25.447Z,912.43
2019-04-20T09:31:25.764Z,912.47
2019-04-20T09:32:28.697Z,912.46
2019-04-20T09:33:33.707Z,912.48
2019-04-20T09:34:34.055Z,912.51
2019-04-20T09:35:30.902Z,912.51
2019-04-20T09:36:27.588Z,912.54
2019-04-20T09:37:32.099Z,912.55
2019-04-20T09:38:30.522Z,912.54
2019-04-20T09:39:21.056Z,912.58
2019-04-20T09:40:30.986Z,912.57
2019-04-20T09:41:30.433Z,912.59
2019-04-20T09:42:12.899Z,912.60
2019-04-20T09:43:15.417Z,912.63
2019-04-20T09:44:13.430Z,912.65
2019-04-20T09:45:21.301Z,912.66
2019-04-20T09:46:13.741Z,912.72
2019-04-20T09:47:13.979Z,912.68
2019-04-20T09:48:19.914Z,912.70
2019-04-20T09:49:20.136Z,912.73
2019-04-20T09:50:27.521Z,912.74
2019-04-20T09:51:33.531Z,912.74
2019-04-20T09:52:26.970Z,912.75
2019-04-20T09:53:24.775Z,912.81
2019-04-20T09:54:34.442Z,912.87
2019-04-20T09:55:24.424Z,912.88
2019-04-20T09:56:28.123Z,912.87
2019-04-20T09:57:29.639Z,912.91
2019-04-20T09:58:21.251Z,912.93
2019-04-20T09:59:28.809Z,912.94
2019-04-20T10:00:31.231Z,912.98
2019-04-20T10:01:22.794Z,912.99
2019-04-20T10:02:19.738Z,913.01
2019-04-20T10:03:12.919Z,913.01
2019-04-20T10:04:13.210Z,913.00
2019-04-20T10:05:13.481Z,913.07
2019-04-20T10:06:12.144Z,913.07
2019-04-20T10:07:17.569Z,913.09
2019-04-20T10:08:13.502Z,913.12
2019-04-20T10:09:12.032Z,913.19
2019-04-20T10:10:21.454Z,913.19
2019-04-20T10:11:11.984Z,913.22
2019-04-20T10:12:11.936Z,913.29
2019-04-20T10:13:13.238Z,913.33
2019-04-20T10:14:12.354Z,913.33
2019-04-20T10:15:17.678Z,913.33
2019-04-20T10:16:11.818Z,913.33
2019-04-20T10:17:11.895Z,913.34
2019-04-20T10:18:12.052Z,913.39
2019-04-20T10:19:12.064Z,913.42
2019-04-20T10:20:19.437Z,913.45
2019-04-20T10:21:11.846Z,913.46
2019-04-20T10:22:12.906Z,913.43
2019-04-20T10:23:12.474Z,913.44
2019-04-20T10:24:12.575Z,913.40
2019-04-20T10:25:12.743Z,913.38
2019-04-20T10:26:12.264Z,913.40
2019-04-20T10:27:12.488Z,913.42
2019-04-20T10:28:11.798Z,913.48
2019-04-20T10:29:11.438Z,913.48
2019-04-20T10:30:12.454Z,913.51
2019-04-20T10:31:12.615Z,913.56
2019-04-20T10:32:14.514Z,913.59
2019-04-20T10:33:11.347Z,913.57
2019-04-20T10:34:11.650Z,913.59
2019-04-20T10:35:14.715Z,913.65
2019-04-20T10:36:11.955Z,913.71
2019-04-20T10:37:11.447Z,913.75
2019-04-20T10:38:11.503Z,913.77
2019-04-20T10:39:11.138Z,913.79
2019-04-20T10:40:11.480Z,913.84
2019-04-20T10:41:16.641Z,913.88
2019-04-20T10:42:12.239Z,913.91
2019-04-20T10:43:12.022Z,913.98
2019-04-20T10:44:12.202Z,914.02
2019-04-20T10:45:10.978Z,914.02
2019-04-20T10:46:11.129Z,914.06
2019-04-20T10:47:11.268Z,914.10
2019-04-20T10:48:11.036Z,914.12
2019-04-20T10:49:11.345Z,914.16
2019-04-20T10:50:11.376Z,914.19
2019-04-20T10:51:10.796Z,914.22
2019-04-20T10:52:11.645Z,914.30
2019-04-20T10:53:11.998Z,914.16
2019-04-20T10:54:12.098Z,914.28
2019-04-20T10:55:10.657Z,914.36
2019-04-20T10:56:11.657Z,914.26
2019-04-20T10:57:10.606Z,914.21
2019-04-20T10:58:11.494Z,914.19
2019-04-20T10:59:11.756Z,914.12
2019-04-20T11:00:10.529Z,914.14
2019-04-20T11:01:11.448Z,914.20
2019-04-20T11:02:11.963Z,914.32
2019-04-20T11:03:10.744Z,914.42
2019-04-20T11:04:10.560Z,914.44
2019-04-20T11:05:10.766Z,914.47
2019-04-20T11:06:11.049Z,914.63
2019-04-20T11:07:10.431Z,915.71
2019-04-20T11:08:10.667Z,917.25
2019-04-20T11:09:10.965Z,917.65
2019-04-20T11:10:17.910Z,916.54
2019-04-20T11:11:16.414Z,915.80
2019-04-20T11:12:10.482Z,915.35
2019-04-20T11:13:10.158Z,915.09
2019-04-20T11:14:16.310Z,915.15
2019-04-20T11:15:10.457Z,915.21
2019-04-20T11:16:10.747Z,914.76
2019-04-20T11:17:10.067Z,914.50
2019-04-20T11:18:11.217Z,914.44
2019-04-20T11:19:11.506Z,914.43
2019-04-20T11:20:09.954Z,914.39
2019-04-20T11:21:11.288Z,914.37
2019-04-20T11:22:10.403Z,914.37
2019-04-20T11:23:10.802Z,914.37
2019-04-20T11:24:10.052Z,914.39
2019-04-20T11:25:10.330Z,914.41
2019-04-20T11:26:10.523Z,914.46
2019-04-20T11:27:09.980Z,914.45
2019-04-20T11:28:10.220Z,914.48
2019-04-20T11:29:10.530Z,914.47
2019-04-20T11:30:10.089Z,914.49
2019-04-20T11:31:10.246Z,914.49
2019-04-20T11:33:09.930Z,914.48
2019-04-20T11:34:10.264Z,914.50
2019-04-20T11:35:21.352Z,914.46
2019-04-20T11:36:09.514Z,914.48
2019-04-20T11:37:10.801Z,914.45
2019-04-20T11:38:12.475Z,914.45
2019-04-20T11:39:09.427Z,914.41
2019-04-20T11:40:10.772Z,914.42
2019-04-20T11:41:17.667Z,914.42
2019-04-20T11:42:09.998Z,914.40
2019-04-20T11:43:09.299Z,914.39
2019-04-20T11:44:09.563Z,914.41
2019-04-20T11:45:09.245Z,914.39
2019-04-20T11:46:09.224Z,914.41
2019-04-20T11:47:10.461Z,914.39
2019-04-20T11:48:09.571Z,914.41
2019-04-20T11:49:09.787Z,914.41
2019-04-20T11:50:09.452Z,914.43
2019-04-20T11:51:09.513Z,914.43
2019-04-20T11:52:09.785Z,914.42
2019-04-20T11:53:09.070Z,914.40
2019-04-20T11:54:10.296Z,914.41
2019-04-20T11:55:08.943Z,914.41
2019-04-20T11:56:14.426Z,914.43
2019-04-20T11:57:09.044Z,914.41
2019-04-20T11:58:09.969Z,914.41
2019-04-20T11:59:09.450Z,914.41
2019-04-20T12:00:08.922Z,914.41
2019-04-20T12:01:13.512Z,914.43
2019-04-20T12:02:10.791Z,914.48
2019-04-20T12:03:16.330Z,914.48
2019-04-20T12:04:22.740Z,914.51
2019-04-20T12:05:21.349Z,914.53
2019-04-20T12:06:08.756Z,914.55
2019-04-20T12:07:08.899Z,914.53
2019-04-20T12:08:09.204Z,914.54
2019-04-20T12:09:08.563Z,914.56
2019-04-20T12:10:14.803Z,914.58
2019-04-20T12:11:22.679Z,914.63
2019-04-20T12:12:21.485Z,914.59
2019-04-20T12:13:09.794Z,914.63
2019-04-20T12:14:08.413Z,914.63
2019-04-20T12:15:08.628Z,914.66
2019-04-20T12:16:09.770Z,914.67
2019-04-20T12:17:08.267Z,914.71
2019-04-20T12:18:09.405Z,914.66
2019-04-20T12:19:08.602Z,914.70
2019-04-20T12:21:08.567Z,914.74
2019-04-20T12:22:08.168Z,914.73
2019-04-20T12:23:08.539Z,914.74
2019-04-20T12:24:08.073Z,914.74
2019-04-20T12:25:08.038Z,914.76
2019-04-20T12:26:08.902Z,914.76
2019-04-20T12:27:09.024Z,914.77
2019-04-20T12:28:07.912Z,914.76
2019-04-20T12:29:07.965Z,914.73
2019-04-20T12:30:07.938Z,914.80
2019-04-20T12:31:13.160Z,914.78
2019-04-20T12:32:09.028Z,914.79
2019-04-20T12:33:07.764Z,914.84
2019-04-20T12:34:08.596Z,914.81
2019-04-20T12:35:08.581Z,914.82
2019-04-20T12:36:08.032Z,914.82
2019-04-20T12:37:09.007Z,914.82
2019-04-20T12:38:07.611Z,914.78
2019-04-20T12:39:08.762Z,914.79
2019-04-20T12:40:08.980Z,914.77
2019-04-20T12:41:09.185Z,914.78
2019-04-20T12:42:09.353Z,914.80
2019-04-20T12:43:08.666Z,914.83
2019-04-20T12:44:07.947Z,914.81
2019-04-20T12:45:08.011Z,914.77
2019-04-20T12:46:07.660Z,914.79
2019-04-20T12:47:07.747Z,914.77
2019-04-20T12:48:07.996Z,914.77
2019-04-20T12:49:07.701Z,914.73
2019-04-20T12:50:07.674Z,914.72
2019-04-20T12:51:07.824Z,914.74
2019-04-20T12:52:08.300Z,914.76
2019-04-20T12:53:08.514Z,914.76
2019-04-20T12:54:07.115Z,914.83
2019-04-20T12:55:08.342Z,914.82
2019-04-20T12:56:08.499Z,914.77